Flight Track Log - Related Links

Times and Time Zones

All times are in EDT time to prevent confusion due to time zone crossing. See the SWA561 flight status page for this flight to view local times or setup timezone preferences in your user account.

Time Position Orientation Groundspeed Altitude Reporting Facility
EDT Latitude Longitude Course Direction KTS MPH feet Rate Location/Type
Mon 09:51:12 PM 33.8764 -118.5222 220° Southwest 254 292 4,200  Level Los Angeles Center
Mon 09:52:13 PM 33.8114 -118.5242 181° South 272 313 6,900 2,889 Climbing Los Angeles Center
Mon 09:53:27 PM 33.7147 -118.5183 177° South 295 339 10,700 3,265 Climbing Los Angeles Center
Mon 09:54:29 PM 33.6611 -118.4017 119° Southeast 350 403 14,300 3,145 Climbing Los Angeles Center
Mon 09:55:31 PM 33.6428 -118.2808 100° East 375 432 17,200 2,829 Climbing Los Angeles Center
Mon 09:56:32 PM 33.6442 -118.1514 89° East 395 455 20,100 2,976 Climbing Los Angeles Center
Mon 09:57:34 PM 33.6444 -117.9889 90° East 407 468 23,300 2,613 Climbing Los Angeles Center
Mon 09:58:36 PM 33.6442 -117.8442 90° East 430 495 25,500 2,146 Climbing Los Angeles Center
Mon 09:59:37 PM 33.6444 -117.6947 90° East 446 513 27,700 1,914 Climbing Los Angeles Center
Mon 10:01:00 PM 33.6333 -117.5113 90° East  Level FlightAware Approximate
Mon 10:01:41 PM 33.6414 -117.3836 90° East 476 548 31,400  Level Los Angeles Center
Mon 10:02:42 PM 33.6403 -117.2236 90° East 480 552 33,300 1,756 Climbing Los Angeles Center
Mon 10:03:44 PM 33.6306 -117.0656 94° East 483 556 35,000 1,694 Climbing Los Angeles Center
Mon 10:04:46 PM 33.6031 -116.8769 100° East 479 551 36,800 1,317 Climbing Los Angeles Center
Mon 10:05:47 PM 33.5850 -116.7381 99° East 487 560 37,700 1,024 Climbing Los Angeles Center
Mon 10:06:49 PM 33.5625 -116.5794 100° East 483 556 38,900 634 Climbing Los Angeles Center
Mon 10:07:50 PM 33.5400 -116.4178 99° East 489 563 39,000 49 Climbing Los Angeles Center
Mon 10:08:52 PM 33.5133 -116.2275 99° East 482 555 39,000  Level Los Angeles Center
Mon 10:09:54 PM 33.4914 -116.0697 99° East 479 551 39,000  Level Los Angeles Center
Mon 10:10:55 PM 33.4681 -115.9114 100° East 481 554 39,000  Level Los Angeles Center
Mon 10:11:57 PM 33.4436 -115.7519 100° East 484 557 39,000  Level Los Angeles Center
Mon 10:12:58 PM 33.4214 -115.5914 99° East 487 560 39,000  Level Los Angeles Center
Mon 10:14:00 PM 33.3983 -115.4325 100° East 485 558 39,000  Level Los Angeles Center
Mon 10:15:01 PM 33.3731 -115.2744 101° East 485 558 39,000  Level Los Angeles Center
Mon 10:16:03 PM 33.3506 -115.1169 100° East 482 555 39,000  Level Los Angeles Center
Mon 10:17:04 PM 33.3228 -114.9267 100° East 487 560 39,000  Level Los Angeles Center
Mon 10:18:06 PM 33.2961 -114.7681 101° East 486 559 39,000  Level Los Angeles Center
Mon 10:19:07 PM 33.2719 -114.6108 100° East 482 555 39,000  Level Los Angeles Center
Mon 10:20:21 PM 33.2481 -114.4542 100° East 480 552 39,000  Level Los Angeles Center
Mon 10:21:08 PM 33.2281 -114.3111 99° East 485 558 39,000  Level Albuquerque Center
Mon 10:22:09 PM 33.2036 -114.1539 100° East 484 557 39,000  Level Albuquerque Center
Mon 10:24:11 PM 33.1469 -113.8067 101° East 484 557 39,000  Level Albuquerque Center
Mon 10:25:12 PM 33.1208 -113.6486 101° East 485 558 39,000  Level Albuquerque Center
Mon 10:26:14 PM 33.0944 -113.4900 101° East 485 558 39,000  Level Albuquerque Center
Mon 10:27:15 PM 33.0689 -113.3314 101° East 486 559 39,000  Level Albuquerque Center
Mon 10:28:16 PM 33.0417 -113.1736 102° East 485 558 39,000 -98 Level Albuquerque Center
Mon 10:29:17 PM 33.0147 -113.0164 102° East 483 556 38,800 -1,033 Descending Albuquerque Center
Mon 10:30:18 PM 32.9881 -112.8594 101° East 482 555 36,900 -2,293 Descending Albuquerque Center
Mon 10:31:20 PM 32.9611 -112.7044 102° East 479 551 34,100 -2,780 Descending Albuquerque Center
Mon 10:32:21 PM 32.9114 -112.5550 112° Southeast 489 563 31,200 -2,557 Descending Albuquerque Center
Mon 10:33:22 PM 32.8561 -112.4128 115° Southeast 474 545 28,900 -2,262 Descending Albuquerque Center
Mon 10:34:23 PM 32.8028 -112.2756 115° Southeast 464 534 26,600 -1,951 Descending Albuquerque Center
Mon 10:35:25 PM 32.7442 -112.1219 114° Southeast 447 514 24,900 -2,000 Descending Albuquerque Center
Mon 10:36:26 PM 32.6922 -111.9892 115° Southeast 445 512 22,500 -2,311 Descending Albuquerque Center
Mon 10:37:27 PM 32.6425 -111.8586 114° Southeast 440 506 20,200 -2,370 Descending Albuquerque Center
Mon 10:38:25 PM 32.5911 -111.7350 116° Southeast 421 484 17,800 -2,426 Descending Albuquerque Center
Mon 10:39:01 PM 32.5622 -111.6619 115° Southeast 409 471 16,400 -2,031 Descending Albuquerque Center
Mon 10:39:30 PM 32.5447 -111.6194 116° Southeast 407 468 15,600 -1,574 Descending Albuquerque Center
Mon 10:40:02 PM 32.4944 -111.5636 137° Southeast 392 451 14,800 -1,180 Descending Albuquerque Center
Mon 10:40:31 PM 32.4706 -111.5317 132° Southeast 388 447 14,400 -1,700 Descending Albuquerque Center
Mon 10:41:02 PM 32.4219 -111.4744 135° Southeast 379 436 13,100 -1,967 Descending Albuquerque Center
Mon 10:41:32 PM 32.3981 -111.4439 133° Southeast 377 434 12,400 -2,066 Descending Albuquerque Center
Mon 10:42:03 PM 32.3522 -111.3894 135° Southeast 367 422 11,000 -1,770 Descending Albuquerque Center
Mon 10:42:33 PM 32.3294 -111.3594 132° Southeast 363 418 10,600 -896 Descending Albuquerque Center
Mon 10:43:10 PM 32.2772 -111.3011 137° Southeast 333 383 10,000 -590 Descending Albuquerque Center
Mon 10:43:34 PM 32.2667 -111.2856 129° Southeast 331 381 10,000 -778 Level Albuquerque Center
Mon 10:44:04 PM 32.2297 -111.2433 136° Southeast 292 336 9,300 -1,355 Descending Albuquerque Center
Mon 10:44:36 PM 32.2022 -111.2064 131° Southeast 287 330 8,600 -1,433 Descending Albuquerque Center
Mon 10:45:11 PM 32.1683 -111.1692 137° Southeast 276 318 7,700 -1,377 Descending Albuquerque Center
Mon 10:45:37 PM 32.1481 -111.1428 132° Southeast 277 319 7,200 -1,279 Descending Albuquerque Center
Mon 10:46:12 PM 32.1153 -111.1053 136° Southeast 276 318 6,400 -984 Descending Albuquerque Center
Mon 10:46:38 PM 32.0950 -111.0786 132° Southeast 276 318 6,200 -400 Descending Albuquerque Center
Mon 10:47:12 PM 32.0647 -111.0433 135° Southeast 252 290 6,000 -393 Descending Albuquerque Center
Mon 10:47:39 PM 32.0500 -111.0175 124° Southeast 262 302 5,800 -885 Descending Albuquerque Center
Mon 10:48:13 PM 32.0250 -110.9939 141° Southeast 212 244 5,100 -1,279 Descending Albuquerque Center
Mon 10:48:40 PM 32.0114 -110.9689 123° Southeast 229 264 4,500 -1,000 Descending Albuquerque Center
Mon 10:49:13 PM 32.0031 -110.9369 107° East 191 220 4,100 -98 Descending Albuquerque Center
Mon 10:49:41 PM 31.9742 -110.9197 153° Southeast 224 258 4,400 -436 Climbing Albuquerque Center
Mon 10:50:08 PM 32.0369 -110.9025 13° North 182 209 3,700 -750 Descending Albuquerque Center
Mon 10:51:09 PM 32.0781 -110.8939 10° North 159 183 3,300 -393 Descending Albuquerque Center

Login

Don't have an account? Register now (free) for customized features, flight alerts, and more!